Trenton, Indiana
Current Conditions -  °F | °C
As of 12:53 PM on Monday 24 Nov 2014 (Local Time) from KMIE Reporting Station
Overcast Overcast  
Wind Chill: -2°   Ceiling: 1700
Heat Index:   Visibility: 10mi
Dew Point:   Wind: 23mph
Humidity: 79%   Direction: 250°WSW
Pressure: 29.5"   Gusts: 40mph
Location:  40.4568°N, 85.3505°W
Report Text: KMIE 241753Z 25020G35KT 10SM OVC017 04/01 A2950 RMK AO2 PK WND 25041/1656 SLP986 60002 T00390006 10144 20039 53047
Loading
Personal Weather Stations






























Interactive Weather Map New forecast layout! Learn more

10-Day Weather Forecast

Advertisements
Track Severe Weather on mobile